sensor_id;sensor_type;location;lat;lon;timestamp;P1;durP1;ratioP1;P2;durP2;ratioP2
47287;SDS011;33020;53.008;13.558;2022-12-18T00:01:26;46.53;;;18.57;;
47287;SDS011;33020;53.008;13.558;2022-12-18T00:03:56;37.35;;;15.32;;
47287;SDS011;33020;53.008;13.558;2022-12-18T00:06:24;44.07;;;17.83;;
47287;SDS011;33020;53.008;13.558;2022-12-18T00:08:51;46.27;;;17.13;;
47287;SDS011;33020;53.008;13.558;2022-12-18T00:11:19;42.87;;;17.13;;
47287;SDS011;33020;53.008;13.558;2022-12-18T00:13:46;41.10;;;16.93;;
47287;SDS011;33020;53.008;13.558;2022-12-18T00:16:16;45.47;;;17.63;;
47287;SDS011;33020;53.008;13.558;2022-12-18T00:18:47;48.03;;;18.70;;
47287;SDS011;33020;53.008;13.558;2022-12-18T00:21:15;47.67;;;18.70;;
47287;SDS011;33020;53.008;13.558;2022-12-18T00:23:42;56.53;;;19.33;;
47287;SDS011;33020;53.008;13.558;2022-12-18T00:26:15;51.40;;;19.30;;
47287;SDS011;33020;53.008;13.558;2022-12-18T00:28:51;43.70;;;17.77;;
47287;SDS011;33020;53.008;13.558;2022-12-18T00:31:20;49.23;;;20.37;;
47287;SDS011;33020;53.008;13.558;2022-12-18T00:33:49;49.23;;;17.73;;
47287;SDS011;33020;53.008;13.558;2022-12-18T00:36:24;58.33;;;20.40;;
47287;SDS011;33020;53.008;13.558;2022-12-18T00:38:55;49.70;;;18.53;;
47287;SDS011;33020;53.008;13.558;2022-12-18T00:41:23;47.20;;;19.03;;
47287;SDS011;33020;53.008;13.558;2022-12-18T00:44:10;48.20;;;18.13;;
47287;SDS011;33020;53.008;13.558;2022-12-18T00:46:38;51.47;;;19.40;;
47287;SDS011;33020;53.008;13.558;2022-12-18T00:49:06;44.47;;;18.03;;
47287;SDS011;33020;53.008;13.558;2022-12-18T00:51:33;60.07;;;20.60;;
47287;SDS011;33020;53.008;13.558;2022-12-18T00:53:59;54.17;;;20.20;;
47287;SDS011;33020;53.008;13.558;2022-12-18T00:56:26;54.43;;;20.87;;
47287;SDS011;33020;53.008;13.558;2022-12-18T00:58:53;49.77;;;19.90;;
47287;SDS011;33020;53.008;13.558;2022-12-18T01:01:20;48.70;;;19.20;;
47287;SDS011;33020;53.008;13.558;2022-12-18T01:03:47;48.23;;;19.43;;
47287;SDS011;33020;53.008;13.558;2022-12-18T01:06:16;51.60;;;21.67;;
47287;SDS011;33020;53.008;13.558;2022-12-18T01:08:46;45.97;;;19.80;;
47287;SDS011;33020;53.008;13.558;2022-12-18T01:11:18;56.67;;;23.23;;
47287;SDS011;33020;53.008;13.558;2022-12-18T01:13:45;53.60;;;20.17;;
47287;SDS011;33020;53.008;13.558;2022-12-18T01:16:12;56.43;;;21.37;;
47287;SDS011;33020;53.008;13.558;2022-12-18T01:18:40;52.43;;;20.73;;
47287;SDS011;33020;53.008;13.558;2022-12-18T01:21:07;55.23;;;20.80;;
47287;SDS011;33020;53.008;13.558;2022-12-18T01:23:35;53.77;;;21.83;;
47287;SDS011;33020;53.008;13.558;2022-12-18T01:26:09;54.43;;;23.10;;
47287;SDS011;33020;53.008;13.558;2022-12-18T01:28:37;45.03;;;19.13;;
47287;SDS011;33020;53.008;13.558;2022-12-18T01:31:15;47.90;;;19.23;;
47287;SDS011;33020;53.008;13.558;2022-12-18T01:33:47;42.00;;;17.73;;
47287;SDS011;33020;53.008;13.558;2022-12-18T01:36:33;42.10;;;18.70;;
47287;SDS011;33020;53.008;13.558;2022-12-18T01:39:02;43.80;;;19.03;;
47287;SDS011;33020;53.008;13.558;2022-12-18T01:41:33;55.27;;;20.17;;
47287;SDS011;33020;53.008;13.558;2022-12-18T01:50:18;43.67;;;17.97;;
47287;SDS011;33020;53.008;13.558;2022-12-18T01:52:49;43.97;;;18.07;;
47287;SDS011;33020;53.008;13.558;2022-12-18T01:55:20;49.63;;;18.43;;
47287;SDS011;33020;53.008;13.558;2022-12-18T01:57:49;53.80;;;19.80;;
47287;SDS011;33020;53.008;13.558;2022-12-18T02:00:19;47.90;;;18.43;;
47287;SDS011;33020;53.008;13.558;2022-12-18T02:02:47;52.50;;;20.53;;
47287;SDS011;33020;53.008;13.558;2022-12-18T02:05:15;58.27;;;22.03;;
47287;SDS011;33020;53.008;13.558;2022-12-18T02:10:43;66.00;;;26.87;;
47287;SDS011;33020;53.008;13.558;2022-12-18T02:16:11;46.60;;;18.43;;
47287;SDS011;33020;53.008;13.558;2022-12-18T02:18:45;55.23;;;21.53;;
47287;SDS011;33020;53.008;13.558;2022-12-18T02:22:07;55.03;;;22.77;;
47287;SDS011;33020;53.008;13.558;2022-12-18T02:27:06;50.90;;;21.90;;
47287;SDS011;33020;53.008;13.558;2022-12-18T02:29:36;51.87;;;22.03;;
47287;SDS011;33020;53.008;13.558;2022-12-18T02:32:06;47.13;;;18.10;;
47287;SDS011;33020;53.008;13.558;2022-12-18T02:34:36;41.70;;;15.77;;
47287;SDS011;33020;53.008;13.558;2022-12-18T02:37:05;43.87;;;17.50;;
47287;SDS011;33020;53.008;13.558;2022-12-18T02:39:36;49.40;;;19.63;;
47287;SDS011;33020;53.008;13.558;2022-12-18T02:42:04;48.87;;;17.60;;
47287;SDS011;33020;53.008;13.558;2022-12-18T02:44:35;40.77;;;17.03;;
47287;SDS011;33020;53.008;13.558;2022-12-18T02:47:14;39.90;;;16.50;;
47287;SDS011;33020;53.008;13.558;2022-12-18T02:52:31;44.00;;;16.00;;
47287;SDS011;33020;53.008;13.558;2022-12-18T02:55:15;42.63;;;16.60;;
47287;SDS011;33020;53.008;13.558;2022-12-18T02:57:48;39.47;;;16.40;;
47287;SDS011;33020;53.008;13.558;2022-12-18T03:00:20;45.23;;;16.10;;
47287;SDS011;33020;53.008;13.558;2022-12-18T03:07:48;38.57;;;15.10;;
47287;SDS011;33020;53.008;13.558;2022-12-18T03:10:19;35.90;;;15.73;;
47287;SDS011;33020;53.008;13.558;2022-12-18T03:12:51;37.60;;;14.07;;
47287;SDS011;33020;53.008;13.558;2022-12-18T03:15:24;40.97;;;14.77;;
47287;SDS011;33020;53.008;13.558;2022-12-18T03:17:56;34.10;;;14.47;;
47287;SDS011;33020;53.008;13.558;2022-12-18T03:20:25;37.17;;;15.60;;
47287;SDS011;33020;53.008;13.558;2022-12-18T03:22:55;39.43;;;14.83;;
47287;SDS011;33020;53.008;13.558;2022-12-18T03:25:26;35.73;;;13.53;;
47287;SDS011;33020;53.008;13.558;2022-12-18T03:27:55;39.67;;;14.60;;
47287;SDS011;33020;53.008;13.558;2022-12-18T03:30:24;30.37;;;14.03;;
47287;SDS011;33020;53.008;13.558;2022-12-18T03:33:01;39.37;;;16.07;;
47287;SDS011;33020;53.008;13.558;2022-12-18T03:35:32;39.47;;;14.97;;
47287;SDS011;33020;53.008;13.558;2022-12-18T03:38:00;42.90;;;16.70;;
47287;SDS011;33020;53.008;13.558;2022-12-18T03:40:30;38.43;;;15.17;;
47287;SDS011;33020;53.008;13.558;2022-12-18T03:43:03;37.20;;;14.70;;
47287;SDS011;33020;53.008;13.558;2022-12-18T03:45:41;36.20;;;14.90;;
47287;SDS011;33020;53.008;13.558;2022-12-18T03:48:14;36.33;;;14.83;;
47287;SDS011;33020;53.008;13.558;2022-12-18T03:50:56;37.05;;;15.23;;
47287;SDS011;33020;53.008;13.558;2022-12-18T03:53:32;32.97;;;14.03;;
47287;SDS011;33020;53.008;13.558;2022-12-18T03:56:04;37.13;;;14.87;;
47287;SDS011;33020;53.008;13.558;2022-12-18T03:58:31;37.37;;;14.97;;
47287;SDS011;33020;53.008;13.558;2022-12-18T04:01:00;30.43;;;12.93;;
47287;SDS011;33020;53.008;13.558;2022-12-18T04:03:31;37.50;;;14.40;;
47287;SDS011;33020;53.008;13.558;2022-12-18T04:05:59;34.17;;;14.43;;
47287;SDS011;33020;53.008;13.558;2022-12-18T04:08:26;32.47;;;15.47;;
47287;SDS011;33020;53.008;13.558;2022-12-18T04:10:53;35.00;;;14.47;;
47287;SDS011;33020;53.008;13.558;2022-12-18T04:13:23;38.67;;;15.53;;
47287;SDS011;33020;53.008;13.558;2022-12-18T04:15:53;31.83;;;13.25;;
47287;SDS011;33020;53.008;13.558;2022-12-18T04:18:21;47.10;;;18.60;;
47287;SDS011;33020;53.008;13.558;2022-12-18T04:20:49;34.50;;;15.00;;
47287;SDS011;33020;53.008;13.558;2022-12-18T04:23:15;33.23;;;15.03;;
47287;SDS011;33020;53.008;13.558;2022-12-18T04:25:42;71.73;;;30.53;;
47287;SDS011;33020;53.008;13.558;2022-12-18T04:28:09;62.17;;;24.70;;
47287;SDS011;33020;53.008;13.558;2022-12-18T04:30:36;40.20;;;18.70;;
47287;SDS011;33020;53.008;13.558;2022-12-18T04:33:02;31.53;;;14.80;;
47287;SDS011;33020;53.008;13.558;2022-12-18T04:35:29;32.07;;;13.70;;
47287;SDS011;33020;53.008;13.558;2022-12-18T04:37:56;33.10;;;13.40;;
47287;SDS011;33020;53.008;13.558;2022-12-18T04:40:23;34.00;;;13.23;;
47287;SDS011;33020;53.008;13.558;2022-12-18T04:42:50;27.47;;;12.40;;
47287;SDS011;33020;53.008;13.558;2022-12-18T04:45:16;31.47;;;13.57;;
47287;SDS011;33020;53.008;13.558;2022-12-18T04:47:43;30.40;;;11.87;;
47287;SDS011;33020;53.008;13.558;2022-12-18T04:50:10;36.37;;;13.07;;
47287;SDS011;33020;53.008;13.558;2022-12-18T04:52:37;32.83;;;14.10;;
47287;SDS011;33020;53.008;13.558;2022-12-18T04:55:03;32.90;;;12.50;;
47287;SDS011;33020;53.008;13.558;2022-12-18T04:57:37;36.50;;;12.60;;
47287;SDS011;33020;53.008;13.558;2022-12-18T05:00:04;30.77;;;15.00;;
47287;SDS011;33020;53.008;13.558;2022-12-18T05:02:32;30.30;;;13.23;;
47287;SDS011;33020;53.008;13.558;2022-12-18T05:04:59;32.97;;;14.17;;
47287;SDS011;33020;53.008;13.558;2022-12-18T05:07:25;31.07;;;14.87;;
47287;SDS011;33020;53.008;13.558;2022-12-18T05:09:52;28.43;;;12.73;;
47287;SDS011;33020;53.008;13.558;2022-12-18T05:12:19;31.87;;;13.53;;
47287;SDS011;33020;53.008;13.558;2022-12-18T05:14:45;33.50;;;14.80;;
47287;SDS011;33020;53.008;13.558;2022-12-18T05:17:12;30.80;;;12.90;;
47287;SDS011;33020;53.008;13.558;2022-12-18T05:19:39;31.33;;;13.10;;
47287;SDS011;33020;53.008;13.558;2022-12-18T05:22:05;32.87;;;13.37;;
47287;SDS011;33020;53.008;13.558;2022-12-18T05:24:33;32.87;;;12.83;;
47287;SDS011;33020;53.008;13.558;2022-12-18T05:26:59;26.73;;;12.83;;
47287;SDS011;33020;53.008;13.558;2022-12-18T05:29:26;32.23;;;12.97;;
47287;SDS011;33020;53.008;13.558;2022-12-18T05:31:53;30.73;;;12.23;;
47287;SDS011;33020;53.008;13.558;2022-12-18T05:34:19;31.20;;;13.93;;
47287;SDS011;33020;53.008;13.558;2022-12-18T05:36:46;27.87;;;11.73;;
47287;SDS011;33020;53.008;13.558;2022-12-18T05:39:13;31.33;;;13.50;;
47287;SDS011;33020;53.008;13.558;2022-12-18T05:41:39;27.60;;;12.70;;
47287;SDS011;33020;53.008;13.558;2022-12-18T05:44:06;34.93;;;13.43;;
47287;SDS011;33020;53.008;13.558;2022-12-18T05:46:33;32.90;;;12.53;;
47287;SDS011;33020;53.008;13.558;2022-12-18T05:49:00;36.70;;;12.77;;
47287;SDS011;33020;53.008;13.558;2022-12-18T05:51:27;28.27;;;11.90;;
47287;SDS011;33020;53.008;13.558;2022-12-18T05:53:54;33.03;;;13.33;;
47287;SDS011;33020;53.008;13.558;2022-12-18T05:56:21;36.80;;;14.90;;
47287;SDS011;33020;53.008;13.558;2022-12-18T05:58:51;34.53;;;13.80;;
47287;SDS011;33020;53.008;13.558;2022-12-18T06:01:20;32.30;;;13.50;;
47287;SDS011;33020;53.008;13.558;2022-12-18T06:03:50;35.87;;;14.10;;
47287;SDS011;33020;53.008;13.558;2022-12-18T06:06:18;35.77;;;15.13;;
47287;SDS011;33020;53.008;13.558;2022-12-18T06:08:47;41.80;;;16.90;;
47287;SDS011;33020;53.008;13.558;2022-12-18T06:11:16;37.60;;;14.83;;
47287;SDS011;33020;53.008;13.558;2022-12-18T06:16:24;39.67;;;14.73;;
47287;SDS011;33020;53.008;13.558;2022-12-18T06:18:50;41.87;;;14.77;;
47287;SDS011;33020;53.008;13.558;2022-12-18T06:21:17;38.07;;;16.00;;
47287;SDS011;33020;53.008;13.558;2022-12-18T06:23:44;44.30;;;16.47;;
47287;SDS011;33020;53.008;13.558;2022-12-18T06:26:11;39.50;;;15.50;;
47287;SDS011;33020;53.008;13.558;2022-12-18T06:28:38;50.83;;;18.60;;
47287;SDS011;33020;53.008;13.558;2022-12-18T06:31:05;44.63;;;16.63;;
47287;SDS011;33020;53.008;13.558;2022-12-18T06:33:32;41.43;;;15.57;;
47287;SDS011;33020;53.008;13.558;2022-12-18T06:36:00;39.73;;;15.30;;
47287;SDS011;33020;53.008;13.558;2022-12-18T06:38:28;55.33;;;18.30;;
47287;SDS011;33020;53.008;13.558;2022-12-18T06:40:55;48.83;;;18.70;;
47287;SDS011;33020;53.008;13.558;2022-12-18T06:43:21;45.77;;;18.00;;
47287;SDS011;33020;53.008;13.558;2022-12-18T06:45:48;42.87;;;16.17;;
47287;SDS011;33020;53.008;13.558;2022-12-18T06:48:19;47.60;;;18.13;;
47287;SDS011;33020;53.008;13.558;2022-12-18T06:50:46;41.20;;;16.43;;
47287;SDS011;33020;53.008;13.558;2022-12-18T06:53:13;38.40;;;16.60;;
47287;SDS011;33020;53.008;13.558;2022-12-18T06:55:40;41.63;;;15.63;;
47287;SDS011;33020;53.008;13.558;2022-12-18T06:58:07;36.60;;;14.27;;
47287;SDS011;33020;53.008;13.558;2022-12-18T07:00:35;40.00;;;15.33;;
47287;SDS011;33020;53.008;13.558;2022-12-18T07:03:02;33.67;;;14.90;;
47287;SDS011;33020;53.008;13.558;2022-12-18T07:05:29;34.97;;;13.77;;
47287;SDS011;33020;53.008;13.558;2022-12-18T07:07:55;38.53;;;13.20;;
47287;SDS011;33020;53.008;13.558;2022-12-18T07:10:22;64.73;;;30.77;;
47287;SDS011;33020;53.008;13.558;2022-12-18T07:12:49;31.47;;;14.40;;
47287;SDS011;33020;53.008;13.558;2022-12-18T07:15:15;32.87;;;13.80;;
47287;SDS011;33020;53.008;13.558;2022-12-18T07:17:42;38.77;;;14.30;;
47287;SDS011;33020;53.008;13.558;2022-12-18T07:20:09;29.37;;;12.53;;
47287;SDS011;33020;53.008;13.558;2022-12-18T07:22:36;32.60;;;14.47;;
47287;SDS011;33020;53.008;13.558;2022-12-18T07:25:03;33.77;;;14.30;;
47287;SDS011;33020;53.008;13.558;2022-12-18T07:27:29;33.50;;;13.63;;
47287;SDS011;33020;53.008;13.558;2022-12-18T07:29:56;33.43;;;13.57;;
47287;SDS011;33020;53.008;13.558;2022-12-18T07:32:23;29.37;;;13.73;;
47287;SDS011;33020;53.008;13.558;2022-12-18T07:34:50;36.20;;;13.87;;
47287;SDS011;33020;53.008;13.558;2022-12-18T07:37:16;28.23;;;12.47;;
47287;SDS011;33020;53.008;13.558;2022-12-18T07:39:43;31.27;;;12.73;;
47287;SDS011;33020;53.008;13.558;2022-12-18T07:42:10;26.33;;;11.70;;
47287;SDS011;33020;53.008;13.558;2022-12-18T07:44:56;26.87;;;12.07;;
47287;SDS011;33020;53.008;13.558;2022-12-18T07:47:23;35.17;;;12.47;;
47287;SDS011;33020;53.008;13.558;2022-12-18T07:49:50;32.13;;;12.60;;
47287;SDS011;33020;53.008;13.558;2022-12-18T07:52:17;30.47;;;12.43;;
47287;SDS011;33020;53.008;13.558;2022-12-18T07:54:51;28.40;;;11.57;;
47287;SDS011;33020;53.008;13.558;2022-12-18T07:57:17;29.13;;;11.57;;
47287;SDS011;33020;53.008;13.558;2022-12-18T08:00:04;28.67;;;12.03;;
47287;SDS011;33020;53.008;13.558;2022-12-18T08:02:31;28.03;;;11.57;;
47287;SDS011;33020;53.008;13.558;2022-12-18T08:04:58;30.10;;;11.90;;
47287;SDS011;33020;53.008;13.558;2022-12-18T08:07:25;32.10;;;12.60;;
47287;SDS011;33020;53.008;13.558;2022-12-18T08:09:51;24.87;;;10.40;;
47287;SDS011;33020;53.008;13.558;2022-12-18T08:12:18;27.27;;;10.80;;
47287;SDS011;33020;53.008;13.558;2022-12-18T08:14:44;30.00;;;12.83;;
47287;SDS011;33020;53.008;13.558;2022-12-18T08:17:11;28.03;;;12.60;;
47287;SDS011;33020;53.008;13.558;2022-12-18T08:19:38;30.53;;;12.13;;
47287;SDS011;33020;53.008;13.558;2022-12-18T08:22:04;32.27;;;12.60;;
47287;SDS011;33020;53.008;13.558;2022-12-18T08:24:31;27.50;;;12.07;;
47287;SDS011;33020;53.008;13.558;2022-12-18T08:26:58;30.73;;;11.83;;
47287;SDS011;33020;53.008;13.558;2022-12-18T08:29:44;26.10;;;11.03;;
47287;SDS011;33020;53.008;13.558;2022-12-18T08:32:11;26.00;;;11.67;;
47287;SDS011;33020;53.008;13.558;2022-12-18T08:34:38;32.00;;;12.97;;
47287;SDS011;33020;53.008;13.558;2022-12-18T08:37:04;25.60;;;12.47;;
47287;SDS011;33020;53.008;13.558;2022-12-18T08:39:31;35.93;;;15.50;;
47287;SDS011;33020;53.008;13.558;2022-12-18T08:41:57;31.73;;;13.43;;
47287;SDS011;33020;53.008;13.558;2022-12-18T08:44:43;37.80;;;13.07;;
47287;SDS011;33020;53.008;13.558;2022-12-18T08:47:09;30.50;;;12.87;;
47287;SDS011;33020;53.008;13.558;2022-12-18T08:49:36;32.53;;;14.80;;
47287;SDS011;33020;53.008;13.558;2022-12-18T08:52:03;32.87;;;13.30;;
47287;SDS011;33020;53.008;13.558;2022-12-18T08:54:29;31.83;;;12.63;;
47287;SDS011;33020;53.008;13.558;2022-12-18T08:56:56;76.70;;;33.83;;
47287;SDS011;33020;53.008;13.558;2022-12-18T08:59:23;36.27;;;15.97;;
47287;SDS011;33020;53.008;13.558;2022-12-18T09:01:50;31.30;;;14.93;;
47287;SDS011;33020;53.008;13.558;2022-12-18T09:04:16;33.83;;;13.23;;
47287;SDS011;33020;53.008;13.558;2022-12-18T09:06:43;31.87;;;12.47;;
47287;SDS011;33020;53.008;13.558;2022-12-18T09:09:10;26.40;;;12.63;;
47287;SDS011;33020;53.008;13.558;2022-12-18T09:11:37;28.43;;;11.93;;
47287;SDS011;33020;53.008;13.558;2022-12-18T09:14:04;29.83;;;12.10;;
47287;SDS011;33020;53.008;13.558;2022-12-18T09:16:32;31.30;;;12.43;;
47287;SDS011;33020;53.008;13.558;2022-12-18T09:19:02;31.47;;;12.63;;
47287;SDS011;33020;53.008;13.558;2022-12-18T09:21:30;30.50;;;12.40;;
47287;SDS011;33020;53.008;13.558;2022-12-18T09:24:02;33.73;;;13.10;;
47287;SDS011;33020;53.008;13.558;2022-12-18T09:26:33;27.70;;;10.73;;
47287;SDS011;33020;53.008;13.558;2022-12-18T09:29:00;27.10;;;12.23;;
47287;SDS011;33020;53.008;13.558;2022-12-18T09:31:28;36.77;;;11.47;;
47287;SDS011;33020;53.008;13.558;2022-12-18T09:33:55;29.30;;;11.37;;
47287;SDS011;33020;53.008;13.558;2022-12-18T09:36:23;28.73;;;11.47;;
47287;SDS011;33020;53.008;13.558;2022-12-18T09:38:49;29.97;;;12.63;;
47287;SDS011;33020;53.008;13.558;2022-12-18T09:44:00;28.57;;;10.87;;
47287;SDS011;33020;53.008;13.558;2022-12-18T09:46:30;31.43;;;12.20;;
47287;SDS011;33020;53.008;13.558;2022-12-18T09:49:00;26.20;;;11.23;;
47287;SDS011;33020;53.008;13.558;2022-12-18T09:51:33;27.13;;;11.83;;
47287;SDS011;33020;53.008;13.558;2022-12-18T09:54:14;30.40;;;12.10;;
47287;SDS011;33020;53.008;13.558;2022-12-18T09:56:46;29.97;;;11.80;;
47287;SDS011;33020;53.008;13.558;2022-12-18T09:59:18;32.47;;;12.73;;
47287;SDS011;33020;53.008;13.558;2022-12-18T10:01:48;23.63;;;10.18;;
47287;SDS011;33020;53.008;13.558;2022-12-18T10:04:14;24.57;;;11.83;;
47287;SDS011;33020;53.008;13.558;2022-12-18T10:09:37;25.27;;;11.63;;
47287;SDS011;33020;53.008;13.558;2022-12-18T10:12:27;24.23;;;10.07;;
47287;SDS011;33020;53.008;13.558;2022-12-18T10:15:13;25.73;;;10.83;;
47287;SDS011;33020;53.008;13.558;2022-12-18T10:23:04;25.37;;;11.57;;
47287;SDS011;33020;53.008;13.558;2022-12-18T10:28:21;32.07;;;12.80;;
47287;SDS011;33020;53.008;13.558;2022-12-18T10:30:48;25.87;;;11.50;;
47287;SDS011;33020;53.008;13.558;2022-12-18T10:33:16;26.17;;;11.60;;
47287;SDS011;33020;53.008;13.558;2022-12-18T10:35:45;29.80;;;12.57;;
47287;SDS011;33020;53.008;13.558;2022-12-18T10:40:52;26.50;;;11.77;;
47287;SDS011;33020;53.008;13.558;2022-12-18T10:43:22;28.60;;;12.00;;
47287;SDS011;33020;53.008;13.558;2022-12-18T10:51:06;23.93;;;11.40;;
47287;SDS011;33020;53.008;13.558;2022-12-18T10:53:37;30.40;;;12.43;;
47287;SDS011;33020;53.008;13.558;2022-12-18T10:56:06;27.83;;;12.37;;
47287;SDS011;33020;53.008;13.558;2022-12-18T10:58:34;35.33;;;24.50;;
47287;SDS011;33020;53.008;13.558;2022-12-18T11:01:12;27.60;;;12.80;;
47287;SDS011;33020;53.008;13.558;2022-12-18T11:03:46;33.03;;;17.20;;
47287;SDS011;33020;53.008;13.558;2022-12-18T11:06:14;30.27;;;13.27;;
47287;SDS011;33020;53.008;13.558;2022-12-18T11:08:57;25.47;;;11.67;;
47287;SDS011;33020;53.008;13.558;2022-12-18T11:11:26;56.33;;;22.50;;
47287;SDS011;33020;53.008;13.558;2022-12-18T11:14:01;30.97;;;13.93;;
47287;SDS011;33020;53.008;13.558;2022-12-18T11:16:33;32.30;;;13.40;;
47287;SDS011;33020;53.008;13.558;2022-12-18T11:22:02;29.90;;;12.30;;
47287;SDS011;33020;53.008;13.558;2022-12-18T11:24:31;27.27;;;11.47;;
47287;SDS011;33020;53.008;13.558;2022-12-18T11:27:01;46.87;;;14.80;;
47287;SDS011;33020;53.008;13.558;2022-12-18T11:29:36;34.00;;;14.57;;
47287;SDS011;33020;53.008;13.558;2022-12-18T11:34:42;23.63;;;10.93;;
47287;SDS011;33020;53.008;13.558;2022-12-18T11:37:11;55.23;;;26.17;;
47287;SDS011;33020;53.008;13.558;2022-12-18T11:39:44;31.50;;;13.53;;
47287;SDS011;33020;53.008;13.558;2022-12-18T11:42:57;25.63;;;11.00;;
47287;SDS011;33020;53.008;13.558;2022-12-18T11:48:03;48.77;;;18.00;;
47287;SDS011;33020;53.008;13.558;2022-12-18T11:50:52;43.27;;;20.27;;
47287;SDS011;33020;53.008;13.558;2022-12-18T11:53:20;30.20;;;15.37;;
47287;SDS011;33020;53.008;13.558;2022-12-18T11:58:37;27.17;;;13.30;;
47287;SDS011;33020;53.008;13.558;2022-12-18T12:01:18;27.17;;;11.30;;
47287;SDS011;33020;53.008;13.558;2022-12-18T12:03:56;28.07;;;11.60;;
47287;SDS011;33020;53.008;13.558;2022-12-18T12:12:07;27.30;;;12.07;;
47287;SDS011;33020;53.008;13.558;2022-12-18T12:15:34;27.27;;;11.27;;
47287;SDS011;33020;53.008;13.558;2022-12-18T12:18:15;28.10;;;11.73;;
47287;SDS011;33020;53.008;13.558;2022-12-18T12:32:11;35.17;;;16.03;;
47287;SDS011;33020;53.008;13.558;2022-12-18T12:37:50;32.40;;;12.67;;
47287;SDS011;33020;53.008;13.558;2022-12-18T12:40:43;37.80;;;12.50;;
47287;SDS011;33020;53.008;13.558;2022-12-18T12:43:33;28.43;;;13.80;;
47287;SDS011;33020;53.008;13.558;2022-12-18T12:46:09;27.47;;;12.37;;
47287;SDS011;33020;53.008;13.558;2022-12-18T12:48:53;30.13;;;11.77;;
47287;SDS011;33020;53.008;13.558;2022-12-18T12:51:26;26.37;;;12.33;;
47287;SDS011;33020;53.008;13.558;2022-12-18T12:53:56;27.83;;;12.87;;
47287;SDS011;33020;53.008;13.558;2022-12-18T12:56:24;27.90;;;13.37;;
47287;SDS011;33020;53.008;13.558;2022-12-18T12:59:15;34.27;;;12.97;;
47287;SDS011;33020;53.008;13.558;2022-12-18T13:04:58;30.60;;;12.03;;
47287;SDS011;33020;53.008;13.558;2022-12-18T13:07:32;26.47;;;11.73;;
47287;SDS011;33020;53.008;13.558;2022-12-18T13:10:22;28.23;;;11.43;;
47287;SDS011;33020;53.008;13.558;2022-12-18T13:12:53;24.67;;;10.83;;
47287;SDS011;33020;53.008;13.558;2022-12-18T13:18:03;30.50;;;11.17;;
47287;SDS011;33020;53.008;13.558;2022-12-18T13:28:20;38.00;;;13.13;;
47287;SDS011;33020;53.008;13.558;2022-12-18T13:30:52;27.83;;;12.00;;
47287;SDS011;33020;53.008;13.558;2022-12-18T13:35:53;25.03;;;12.40;;
47287;SDS011;33020;53.008;13.558;2022-12-18T13:38:34;24.77;;;11.33;;
47287;SDS011;33020;53.008;13.558;2022-12-18T13:41:03;23.77;;;10.83;;
47287;SDS011;33020;53.008;13.558;2022-12-18T13:43:32;24.97;;;11.10;;
47287;SDS011;33020;53.008;13.558;2022-12-18T13:46:23;26.40;;;11.60;;
47287;SDS011;33020;53.008;13.558;2022-12-18T13:48:51;23.67;;;10.83;;
47287;SDS011;33020;53.008;13.558;2022-12-18T13:51:21;25.47;;;10.73;;
47287;SDS011;33020;53.008;13.558;2022-12-18T13:53:50;24.17;;;10.30;;
47287;SDS011;33020;53.008;13.558;2022-12-18T13:56:21;21.83;;;10.03;;
47287;SDS011;33020;53.008;13.558;2022-12-18T14:01:57;25.27;;;11.30;;
47287;SDS011;33020;53.008;13.558;2022-12-18T14:04:34;21.37;;;10.50;;
47287;SDS011;33020;53.008;13.558;2022-12-18T14:07:18;18.40;;;9.88;;
47287;SDS011;33020;53.008;13.558;2022-12-18T14:09:55;20.63;;;8.90;;
47287;SDS011;33020;53.008;13.558;2022-12-18T14:12:47;27.83;;;10.27;;
47287;SDS011;33020;53.008;13.558;2022-12-18T14:18:02;31.50;;;10.80;;
47287;SDS011;33020;53.008;13.558;2022-12-18T14:20:35;24.45;;;10.07;;
47287;SDS011;33020;53.008;13.558;2022-12-18T14:23:01;29.63;;;12.47;;
47287;SDS011;33020;53.008;13.558;2022-12-18T14:25:29;24.67;;;11.30;;
47287;SDS011;33020;53.008;13.558;2022-12-18T14:28:12;23.73;;;10.83;;
47287;SDS011;33020;53.008;13.558;2022-12-18T14:33:21;26.27;;;11.47;;
47287;SDS011;33020;53.008;13.558;2022-12-18T14:36:00;20.87;;;10.07;;
47287;SDS011;33020;53.008;13.558;2022-12-18T14:38:32;30.00;;;11.47;;
47287;SDS011;33020;53.008;13.558;2022-12-18T14:41:12;32.87;;;12.30;;
47287;SDS011;33020;53.008;13.558;2022-12-18T14:43:41;26.23;;;11.57;;
47287;SDS011;33020;53.008;13.558;2022-12-18T14:46:26;26.80;;;11.63;;
47287;SDS011;33020;53.008;13.558;2022-12-18T14:51:52;28.97;;;12.33;;
47287;SDS011;33020;53.008;13.558;2022-12-18T14:54:21;29.67;;;15.03;;
47287;SDS011;33020;53.008;13.558;2022-12-18T14:56:49;27.13;;;11.67;;
47287;SDS011;33020;53.008;13.558;2022-12-18T14:59:24;34.33;;;17.03;;
47287;SDS011;33020;53.008;13.558;2022-12-18T15:04:35;26.17;;;12.73;;
47287;SDS011;33020;53.008;13.558;2022-12-18T15:09:37;22.90;;;10.47;;
47287;SDS011;33020;53.008;13.558;2022-12-18T15:12:16;28.53;;;11.20;;
47287;SDS011;33020;53.008;13.558;2022-12-18T15:14:49;26.60;;;10.50;;
47287;SDS011;33020;53.008;13.558;2022-12-18T15:17:20;24.00;;;10.30;;
47287;SDS011;33020;53.008;13.558;2022-12-18T15:19:50;29.40;;;14.63;;
47287;SDS011;33020;53.008;13.558;2022-12-18T15:24:49;22.70;;;11.53;;
47287;SDS011;33020;53.008;13.558;2022-12-18T15:27:33;30.43;;;14.00;;
47287;SDS011;33020;53.008;13.558;2022-12-18T15:32:31;30.03;;;13.43;;
47287;SDS011;33020;53.008;13.558;2022-12-18T15:35:16;24.67;;;11.50;;
47287;SDS011;33020;53.008;13.558;2022-12-18T15:37:50;27.43;;;12.63;;
47287;SDS011;33020;53.008;13.558;2022-12-18T15:40:21;26.47;;;12.23;;
47287;SDS011;33020;53.008;13.558;2022-12-18T15:42:50;25.47;;;11.07;;
47287;SDS011;33020;53.008;13.558;2022-12-18T15:45:37;27.23;;;12.70;;
47287;SDS011;33020;53.008;13.558;2022-12-18T15:48:10;26.63;;;11.93;;
47287;SDS011;33020;53.008;13.558;2022-12-18T15:50:44;28.43;;;11.43;;
47287;SDS011;33020;53.008;13.558;2022-12-18T15:53:11;29.50;;;13.27;;
47287;SDS011;33020;53.008;13.558;2022-12-18T15:55:38;22.17;;;11.77;;
47287;SDS011;33020;53.008;13.558;2022-12-18T15:58:26;26.00;;;11.67;;
47287;SDS011;33020;53.008;13.558;2022-12-18T16:00:53;25.47;;;11.67;;
47287;SDS011;33020;53.008;13.558;2022-12-18T16:03:21;24.57;;;10.57;;
47287;SDS011;33020;53.008;13.558;2022-12-18T16:05:48;27.10;;;13.20;;
47287;SDS011;33020;53.008;13.558;2022-12-18T16:08:15;37.40;;;14.97;;
47287;SDS011;33020;53.008;13.558;2022-12-18T16:10:42;32.00;;;12.37;;
47287;SDS011;33020;53.008;13.558;2022-12-18T16:13:12;28.37;;;12.70;;
47287;SDS011;33020;53.008;13.558;2022-12-18T16:15:42;24.85;;;11.07;;
47287;SDS011;33020;53.008;13.558;2022-12-18T16:18:09;26.47;;;11.57;;
47287;SDS011;33020;53.008;13.558;2022-12-18T16:20:36;28.50;;;12.23;;
47287;SDS011;33020;53.008;13.558;2022-12-18T16:23:02;27.43;;;13.27;;
47287;SDS011;33020;53.008;13.558;2022-12-18T16:25:29;29.70;;;12.03;;